sensor_id;sensor_type;location;lat;lon;timestamp;P1;durP1;ratioP1;P2;durP2;ratioP2
67749;SDS011;54550;48.838;8.828;2023-01-26T00:01:19;84.57;;;24.73;;
67749;SDS011;54550;48.838;8.828;2023-01-26T00:03:46;87.00;;;25.02;;
67749;SDS011;54550;48.838;8.828;2023-01-26T00:06:13;97.53;;;26.27;;
67749;SDS011;54550;48.838;8.828;2023-01-26T00:08:41;90.50;;;28.13;;
67749;SDS011;54550;48.838;8.828;2023-01-26T00:11:09;80.18;;;25.02;;
67749;SDS011;54550;48.838;8.828;2023-01-26T00:13:36;90.18;;;26.05;;
67749;SDS011;54550;48.838;8.828;2023-01-26T00:16:02;119.30;;;24.08;;
67749;SDS011;54550;48.838;8.828;2023-01-26T00:18:29;104.88;;;24.90;;
67749;SDS011;54550;48.838;8.828;2023-01-26T00:20:55;87.95;;;25.25;;
67749;SDS011;54550;48.838;8.828;2023-01-26T00:23:22;88.50;;;24.65;;
67749;SDS011;54550;48.838;8.828;2023-01-26T00:25:48;90.97;;;23.88;;
67749;SDS011;54550;48.838;8.828;2023-01-26T00:28:14;73.37;;;24.13;;
67749;SDS011;54550;48.838;8.828;2023-01-26T00:30:39;95.57;;;24.27;;
67749;SDS011;54550;48.838;8.828;2023-01-26T00:33:05;81.10;;;26.33;;
67749;SDS011;54550;48.838;8.828;2023-01-26T00:35:30;110.27;;;24.67;;
67749;SDS011;54550;48.838;8.828;2023-01-26T00:37:56;87.27;;;24.30;;
67749;SDS011;54550;48.838;8.828;2023-01-26T00:40:22;82.33;;;22.30;;
67749;SDS011;54550;48.838;8.828;2023-01-26T00:42:47;80.27;;;20.73;;
67749;SDS011;54550;48.838;8.828;2023-01-26T00:45:13;77.10;;;23.60;;
67749;SDS011;54550;48.838;8.828;2023-01-26T00:47:39;70.90;;;22.93;;
67749;SDS011;54550;48.838;8.828;2023-01-26T00:50:04;91.77;;;24.37;;
67749;SDS011;54550;48.838;8.828;2023-01-26T00:52:30;71.72;;;23.20;;
67749;SDS011;54550;48.838;8.828;2023-01-26T00:54:56;82.73;;;22.70;;
67749;SDS011;54550;48.838;8.828;2023-01-26T00:57:21;80.97;;;23.77;;
67749;SDS011;54550;48.838;8.828;2023-01-26T00:59:47;74.07;;;23.77;;
67749;SDS011;54550;48.838;8.828;2023-01-26T01:02:12;66.10;;;21.77;;
67749;SDS011;54550;48.838;8.828;2023-01-26T01:04:38;73.33;;;22.87;;
67749;SDS011;54550;48.838;8.828;2023-01-26T01:07:04;79.80;;;22.17;;
67749;SDS011;54550;48.838;8.828;2023-01-26T01:09:29;66.23;;;21.77;;
67749;SDS011;54550;48.838;8.828;2023-01-26T01:11:55;91.43;;;21.77;;
67749;SDS011;54550;48.838;8.828;2023-01-26T01:14:20;98.50;;;23.13;;
67749;SDS011;54550;48.838;8.828;2023-01-26T01:16:46;76.87;;;21.90;;
67749;SDS011;54550;48.838;8.828;2023-01-26T01:19:15;83.93;;;22.83;;
67749;SDS011;54550;48.838;8.828;2023-01-26T01:21:42;102.50;;;23.85;;
67749;SDS011;54550;48.838;8.828;2023-01-26T01:24:09;83.93;;;23.58;;
67749;SDS011;54550;48.838;8.828;2023-01-26T01:26:35;89.22;;;23.67;;
67749;SDS011;54550;48.838;8.828;2023-01-26T01:29:01;79.60;;;19.40;;
67749;SDS011;54550;48.838;8.828;2023-01-26T01:31:27;62.57;;;23.13;;
67749;SDS011;54550;48.838;8.828;2023-01-26T01:33:53;59.03;;;20.97;;
67749;SDS011;54550;48.838;8.828;2023-01-26T01:36:19;89.32;;;22.75;;
67749;SDS011;54550;48.838;8.828;2023-01-26T01:38:45;67.67;;;21.50;;
67749;SDS011;54550;48.838;8.828;2023-01-26T01:41:12;73.88;;;20.90;;
67749;SDS011;54550;48.838;8.828;2023-01-26T01:43:39;95.72;;;21.85;;
67749;SDS011;54550;48.838;8.828;2023-01-26T01:46:06;79.97;;;25.67;;
67749;SDS011;54550;48.838;8.828;2023-01-26T01:49:27;79.07;;;23.67;;
67749;SDS011;54550;48.838;8.828;2023-01-26T01:52:01;74.00;;;23.20;;
67749;SDS011;54550;48.838;8.828;2023-01-26T01:54:45;76.05;;;20.05;;
67749;SDS011;54550;48.838;8.828;2023-01-26T01:57:17;75.68;;;24.38;;
67749;SDS011;54550;48.838;8.828;2023-01-26T01:59:56;75.80;;;19.90;;
67749;SDS011;54550;48.838;8.828;2023-01-26T02:02:43;73.43;;;20.30;;
67749;SDS011;54550;48.838;8.828;2023-01-26T02:05:31;71.70;;;21.80;;
67749;SDS011;54550;48.838;8.828;2023-01-26T02:08:00;68.88;;;21.98;;
67749;SDS011;54550;48.838;8.828;2023-01-26T02:10:27;69.32;;;21.05;;
67749;SDS011;54550;48.838;8.828;2023-01-26T02:12:54;78.57;;;20.75;;
67749;SDS011;54550;48.838;8.828;2023-01-26T02:15:20;69.63;;;20.88;;
67749;SDS011;54550;48.838;8.828;2023-01-26T02:17:46;64.03;;;20.77;;
67749;SDS011;54550;48.838;8.828;2023-01-26T02:22:59;64.82;;;20.60;;
67749;SDS011;54550;48.838;8.828;2023-01-26T02:25:39;79.32;;;22.38;;
67749;SDS011;54550;48.838;8.828;2023-01-26T02:28:16;65.85;;;21.10;;
67749;SDS011;54550;48.838;8.828;2023-01-26T02:30:44;67.55;;;19.65;;
67749;SDS011;54550;48.838;8.828;2023-01-26T02:33:16;84.40;;;21.90;;
67749;SDS011;54550;48.838;8.828;2023-01-26T02:35:46;65.72;;;20.98;;
67749;SDS011;54550;48.838;8.828;2023-01-26T02:38:11;75.60;;;24.03;;
67749;SDS011;54550;48.838;8.828;2023-01-26T02:40:42;128.13;;;26.27;;
67749;SDS011;54550;48.838;8.828;2023-01-26T02:43:29;126.65;;;23.45;;
67749;SDS011;54550;48.838;8.828;2023-01-26T02:45:56;353.08;;;29.58;;
67749;SDS011;54550;48.838;8.828;2023-01-26T02:48:21;93.90;;;22.57;;
67749;SDS011;54550;48.838;8.828;2023-01-26T02:51:16;173.32;;;24.92;;
67749;SDS011;54550;48.838;8.828;2023-01-26T02:53:41;169.73;;;26.10;;
67749;SDS011;54550;48.838;8.828;2023-01-26T02:56:07;182.90;;;24.60;;
67749;SDS011;54550;48.838;8.828;2023-01-26T02:58:33;129.90;;;23.60;;
67749;SDS011;54550;48.838;8.828;2023-01-26T03:00:58;191.65;;;24.58;;
67749;SDS011;54550;48.838;8.828;2023-01-26T03:03:27;359.23;;;27.90;;
67749;SDS011;54550;48.838;8.828;2023-01-26T03:06:06;307.38;;;28.58;;
67749;SDS011;54550;48.838;8.828;2023-01-26T03:08:33;474.95;;;32.33;;
67749;SDS011;54550;48.838;8.828;2023-01-26T03:10:59;322.20;;;28.80;;
67749;SDS011;54550;48.838;8.828;2023-01-26T03:13:24;321.43;;;28.70;;
67749;SDS011;54550;48.838;8.828;2023-01-26T03:15:50;436.00;;;31.00;;
67749;SDS011;54550;48.838;8.828;2023-01-26T03:18:17;308.60;;;29.90;;
67749;SDS011;54550;48.838;8.828;2023-01-26T03:21:04;332.38;;;31.60;;
67749;SDS011;54550;48.838;8.828;2023-01-26T03:23:59;316.23;;;30.35;;
67749;SDS011;54550;48.838;8.828;2023-01-26T03:26:44;308.73;;;31.17;;
67749;SDS011;54550;48.838;8.828;2023-01-26T03:29:28;316.83;;;30.45;;
67749;SDS011;54550;48.838;8.828;2023-01-26T03:31:55;169.38;;;28.73;;
67749;SDS011;54550;48.838;8.828;2023-01-26T03:34:20;266.50;;;30.60;;
67749;SDS011;54550;48.838;8.828;2023-01-26T03:36:49;171.50;;;28.87;;
67749;SDS011;54550;48.838;8.828;2023-01-26T03:39:15;218.15;;;28.30;;
67749;SDS011;54550;48.838;8.828;2023-01-26T03:41:59;138.07;;;26.65;;
67749;SDS011;54550;48.838;8.828;2023-01-26T03:44:43;133.18;;;20.83;;
67749;SDS011;54550;48.838;8.828;2023-01-26T03:47:28;337.13;;;28.35;;
67749;SDS011;54550;48.838;8.828;2023-01-26T03:50:14;150.13;;;25.17;;
67749;SDS011;54550;48.838;8.828;2023-01-26T03:52:59;97.85;;;25.35;;
67749;SDS011;54550;48.838;8.828;2023-01-26T03:55:43;113.15;;;27.38;;
67749;SDS011;54550;48.838;8.828;2023-01-26T03:58:28;224.05;;;30.40;;
67749;SDS011;54550;48.838;8.828;2023-01-26T04:00:54;214.85;;;30.55;;
67749;SDS011;54550;48.838;8.828;2023-01-26T04:03:20;597.72;;;42.42;;
67749;SDS011;54550;48.838;8.828;2023-01-26T04:06:05;499.77;;;37.85;;
67749;SDS011;54550;48.838;8.828;2023-01-26T04:08:49;406.02;;;39.85;;
67749;SDS011;54550;48.838;8.828;2023-01-26T04:11:15;454.47;;;35.10;;
67749;SDS011;54550;48.838;8.828;2023-01-26T04:13:40;237.07;;;31.00;;
67749;SDS011;54550;48.838;8.828;2023-01-26T04:16:24;129.18;;;31.13;;
67749;SDS011;54550;48.838;8.828;2023-01-26T04:19:09;144.73;;;30.65;;
67749;SDS011;54550;48.838;8.828;2023-01-26T04:21:53;106.00;;;28.65;;
67749;SDS011;54550;48.838;8.828;2023-01-26T04:24:18;159.30;;;34.33;;
67749;SDS011;54550;48.838;8.828;2023-01-26T04:26:46;181.45;;;32.45;;
67749;SDS011;54550;48.838;8.828;2023-01-26T04:29:12;189.60;;;33.60;;
67749;SDS011;54550;48.838;8.828;2023-01-26T04:31:39;222.50;;;32.88;;
67749;SDS011;54550;48.838;8.828;2023-01-26T04:34:06;131.23;;;31.85;;
67749;SDS011;54550;48.838;8.828;2023-01-26T04:36:38;166.52;;;31.77;;
67749;SDS011;54550;48.838;8.828;2023-01-26T04:39:04;194.65;;;33.53;;
67749;SDS011;54550;48.838;8.828;2023-01-26T04:41:30;209.03;;;30.50;;
67749;SDS011;54550;48.838;8.828;2023-01-26T04:43:56;104.75;;;27.67;;
67749;SDS011;54550;48.838;8.828;2023-01-26T04:46:22;216.57;;;34.70;;
67749;SDS011;54550;48.838;8.828;2023-01-26T04:48:47;173.03;;;31.43;;
67749;SDS011;54550;48.838;8.828;2023-01-26T04:51:14;120.90;;;30.00;;
67749;SDS011;54550;48.838;8.828;2023-01-26T04:53:42;141.60;;;31.17;;
67749;SDS011;54550;48.838;8.828;2023-01-26T04:56:30;130.73;;;28.87;;
67749;SDS011;54550;48.838;8.828;2023-01-26T04:58:55;128.52;;;29.20;;
67749;SDS011;54550;48.838;8.828;2023-01-26T05:01:23;135.95;;;25.35;;
67749;SDS011;54550;48.838;8.828;2023-01-26T05:03:48;106.60;;;25.83;;
67749;SDS011;54550;48.838;8.828;2023-01-26T05:06:14;105.90;;;28.17;;
67749;SDS011;54550;48.838;8.828;2023-01-26T05:08:40;120.72;;;28.08;;
67749;SDS011;54550;48.838;8.828;2023-01-26T05:11:06;140.05;;;31.35;;
67749;SDS011;54550;48.838;8.828;2023-01-26T05:13:32;129.10;;;31.53;;
67749;SDS011;54550;48.838;8.828;2023-01-26T05:15:59;138.18;;;27.60;;
67749;SDS011;54550;48.838;8.828;2023-01-26T05:18:25;124.03;;;30.10;;
67749;SDS011;54550;48.838;8.828;2023-01-26T05:20:51;123.57;;;26.67;;
67749;SDS011;54550;48.838;8.828;2023-01-26T05:23:16;133.10;;;32.00;;
67749;SDS011;54550;48.838;8.828;2023-01-26T05:25:42;107.93;;;27.03;;
67749;SDS011;54550;48.838;8.828;2023-01-26T05:28:07;136.80;;;33.50;;
67749;SDS011;54550;48.838;8.828;2023-01-26T05:30:33;149.83;;;30.93;;
67749;SDS011;54550;48.838;8.828;2023-01-26T05:32:59;134.80;;;32.70;;
67749;SDS011;54550;48.838;8.828;2023-01-26T05:35:29;127.65;;;31.17;;
67749;SDS011;54550;48.838;8.828;2023-01-26T05:37:55;127.40;;;27.17;;
67749;SDS011;54550;48.838;8.828;2023-01-26T05:40:20;107.00;;;25.27;;
67749;SDS011;54550;48.838;8.828;2023-01-26T05:42:46;122.23;;;31.17;;
67749;SDS011;54550;48.838;8.828;2023-01-26T05:45:12;118.27;;;31.80;;
67749;SDS011;54550;48.838;8.828;2023-01-26T05:47:37;115.10;;;27.50;;
67749;SDS011;54550;48.838;8.828;2023-01-26T05:50:04;112.60;;;28.40;;
67749;SDS011;54550;48.838;8.828;2023-01-26T05:52:30;97.90;;;27.45;;
67749;SDS011;54550;48.838;8.828;2023-01-26T05:54:56;104.15;;;25.27;;
67749;SDS011;54550;48.838;8.828;2023-01-26T05:57:21;108.43;;;25.60;;
67749;SDS011;54550;48.838;8.828;2023-01-26T05:59:47;104.73;;;27.50;;
67749;SDS011;54550;48.838;8.828;2023-01-26T06:02:12;101.37;;;24.70;;
67749;SDS011;54550;48.838;8.828;2023-01-26T06:04:38;87.43;;;24.43;;
67749;SDS011;54550;48.838;8.828;2023-01-26T06:07:04;93.47;;;23.47;;
67749;SDS011;54550;48.838;8.828;2023-01-26T06:09:30;94.00;;;23.20;;
67749;SDS011;54550;48.838;8.828;2023-01-26T06:11:56;95.73;;;26.30;;
67749;SDS011;54550;48.838;8.828;2023-01-26T06:14:23;75.47;;;22.42;;
67749;SDS011;54550;48.838;8.828;2023-01-26T06:16:48;96.70;;;25.37;;
67749;SDS011;54550;48.838;8.828;2023-01-26T06:19:14;85.93;;;23.90;;
67749;SDS011;54550;48.838;8.828;2023-01-26T06:21:39;108.03;;;24.87;;
67749;SDS011;54550;48.838;8.828;2023-01-26T06:24:05;96.87;;;24.80;;
67749;SDS011;54550;48.838;8.828;2023-01-26T06:26:31;137.27;;;29.38;;
67749;SDS011;54550;48.838;8.828;2023-01-26T06:28:57;112.33;;;27.73;;
67749;SDS011;54550;48.838;8.828;2023-01-26T06:31:22;110.40;;;25.50;;
67749;SDS011;54550;48.838;8.828;2023-01-26T06:33:48;90.10;;;23.57;;
67749;SDS011;54550;48.838;8.828;2023-01-26T06:36:14;85.70;;;24.40;;
67749;SDS011;54550;48.838;8.828;2023-01-26T06:38:58;86.30;;;23.67;;
67749;SDS011;54550;48.838;8.828;2023-01-26T06:41:24;91.75;;;25.70;;
67749;SDS011;54550;48.838;8.828;2023-01-26T06:43:50;95.40;;;24.63;;
67749;SDS011;54550;48.838;8.828;2023-01-26T06:46:16;106.93;;;22.30;;
67749;SDS011;54550;48.838;8.828;2023-01-26T06:48:42;92.38;;;25.30;;
67749;SDS011;54550;48.838;8.828;2023-01-26T06:54:02;84.03;;;23.10;;
67749;SDS011;54550;48.838;8.828;2023-01-26T06:56:28;76.27;;;23.10;;
67749;SDS011;54550;48.838;8.828;2023-01-26T06:58:53;98.43;;;25.70;;
67749;SDS011;54550;48.838;8.828;2023-01-26T07:01:20;69.07;;;25.13;;
67749;SDS011;54550;48.838;8.828;2023-01-26T07:03:47;72.45;;;21.15;;
67749;SDS011;54550;48.838;8.828;2023-01-26T07:06:14;83.65;;;21.20;;
67749;SDS011;54550;48.838;8.828;2023-01-26T07:08:39;78.87;;;21.73;;
67749;SDS011;54550;48.838;8.828;2023-01-26T07:11:05;53.50;;;17.40;;
67749;SDS011;54550;48.838;8.828;2023-01-26T07:13:32;55.80;;;17.27;;
67749;SDS011;54550;48.838;8.828;2023-01-26T07:16:01;54.38;;;15.70;;
67749;SDS011;54550;48.838;8.828;2023-01-26T07:18:26;60.08;;;17.15;;
67749;SDS011;54550;48.838;8.828;2023-01-26T07:20:52;70.70;;;18.83;;
67749;SDS011;54550;48.838;8.828;2023-01-26T07:23:18;59.47;;;17.27;;
67749;SDS011;54550;48.838;8.828;2023-01-26T07:25:43;52.37;;;15.30;;
67749;SDS011;54550;48.838;8.828;2023-01-26T07:28:09;43.63;;;16.37;;
67749;SDS011;54550;48.838;8.828;2023-01-26T07:30:34;49.97;;;18.37;;
67749;SDS011;54550;48.838;8.828;2023-01-26T07:33:01;61.28;;;17.02;;
67749;SDS011;54550;48.838;8.828;2023-01-26T07:35:26;50.57;;;18.03;;
67749;SDS011;54550;48.838;8.828;2023-01-26T07:37:53;49.88;;;14.77;;
67749;SDS011;54550;48.838;8.828;2023-01-26T07:40:19;43.40;;;14.30;;
67749;SDS011;54550;48.838;8.828;2023-01-26T07:42:45;44.40;;;15.23;;
67749;SDS011;54550;48.838;8.828;2023-01-26T07:45:11;50.90;;;18.70;;
67749;SDS011;54550;48.838;8.828;2023-01-26T07:47:36;58.70;;;17.53;;
67749;SDS011;54550;48.838;8.828;2023-01-26T07:50:02;51.17;;;18.90;;
67749;SDS011;54550;48.838;8.828;2023-01-26T07:52:28;50.53;;;19.50;;
67749;SDS011;54550;48.838;8.828;2023-01-26T07:54:53;57.10;;;19.20;;
67749;SDS011;54550;48.838;8.828;2023-01-26T07:57:19;48.93;;;17.90;;
67749;SDS011;54550;48.838;8.828;2023-01-26T07:59:44;58.23;;;18.80;;
67749;SDS011;54550;48.838;8.828;2023-01-26T08:02:10;46.07;;;17.47;;
67749;SDS011;54550;48.838;8.828;2023-01-26T08:04:35;46.03;;;17.50;;
67749;SDS011;54550;48.838;8.828;2023-01-26T08:07:01;42.73;;;15.80;;
67749;SDS011;54550;48.838;8.828;2023-01-26T08:09:27;51.13;;;15.10;;
67749;SDS011;54550;48.838;8.828;2023-01-26T08:11:55;39.80;;;13.90;;
67749;SDS011;54550;48.838;8.828;2023-01-26T08:14:21;87.93;;;18.20;;
67749;SDS011;54550;48.838;8.828;2023-01-26T08:16:47;29.43;;;13.07;;
67749;SDS011;54550;48.838;8.828;2023-01-26T08:19:13;32.80;;;14.87;;
67749;SDS011;54550;48.838;8.828;2023-01-26T08:21:38;34.13;;;13.27;;
67749;SDS011;54550;48.838;8.828;2023-01-26T08:24:04;32.33;;;13.57;;
67749;SDS011;54550;48.838;8.828;2023-01-26T08:26:31;38.63;;;14.85;;
67749;SDS011;54550;48.838;8.828;2023-01-26T08:28:56;33.95;;;14.10;;
67749;SDS011;54550;48.838;8.828;2023-01-26T08:31:22;40.70;;;17.63;;
67749;SDS011;54550;48.838;8.828;2023-01-26T08:33:49;33.13;;;15.48;;
67749;SDS011;54550;48.838;8.828;2023-01-26T08:36:16;37.50;;;14.30;;
67749;SDS011;54550;48.838;8.828;2023-01-26T08:38:43;33.65;;;14.52;;
67749;SDS011;54550;48.838;8.828;2023-01-26T08:41:09;30.15;;;13.68;;
67749;SDS011;54550;48.838;8.828;2023-01-26T08:43:35;42.13;;;17.20;;
67749;SDS011;54550;48.838;8.828;2023-01-26T08:46:01;36.40;;;14.83;;
67749;SDS011;54550;48.838;8.828;2023-01-26T08:48:27;59.63;;;15.77;;
67749;SDS011;54550;48.838;8.828;2023-01-26T08:50:55;37.75;;;15.85;;
67749;SDS011;54550;48.838;8.828;2023-01-26T08:53:22;43.78;;;15.32;;
67749;SDS011;54550;48.838;8.828;2023-01-26T08:55:48;46.47;;;16.65;;
67749;SDS011;54550;48.838;8.828;2023-01-26T08:58:14;43.33;;;16.83;;
67749;SDS011;54550;48.838;8.828;2023-01-26T09:00:40;37.27;;;13.47;;
67749;SDS011;54550;48.838;8.828;2023-01-26T09:03:06;40.50;;;14.90;;
67749;SDS011;54550;48.838;8.828;2023-01-26T09:05:32;42.50;;;15.13;;
67749;SDS011;54550;48.838;8.828;2023-01-26T09:07:59;43.70;;;19.08;;
67749;SDS011;54550;48.838;8.828;2023-01-26T09:10:25;43.43;;;16.47;;
67749;SDS011;54550;48.838;8.828;2023-01-26T09:12:51;45.58;;;16.30;;
67749;SDS011;54550;48.838;8.828;2023-01-26T09:15:17;43.50;;;15.00;;
67749;SDS011;54550;48.838;8.828;2023-01-26T09:17:43;48.37;;;16.83;;
67749;SDS011;54550;48.838;8.828;2023-01-26T09:20:09;44.23;;;16.77;;
67749;SDS011;54550;48.838;8.828;2023-01-26T09:22:35;38.63;;;15.52;;
67749;SDS011;54550;48.838;8.828;2023-01-26T09:25:01;42.60;;;17.13;;
67749;SDS011;54550;48.838;8.828;2023-01-26T09:27:27;49.42;;;17.95;;
67749;SDS011;54550;48.838;8.828;2023-01-26T09:29:53;49.33;;;17.30;;
67749;SDS011;54550;48.838;8.828;2023-01-26T09:32:20;38.83;;;17.52;;
67749;SDS011;54550;48.838;8.828;2023-01-26T09:34:45;41.65;;;14.55;;
67749;SDS011;54550;48.838;8.828;2023-01-26T09:37:11;43.80;;;17.70;;
67749;SDS011;54550;48.838;8.828;2023-01-26T09:39:37;51.43;;;18.77;;
67749;SDS011;54550;48.838;8.828;2023-01-26T09:50:40;35.67;;;14.48;;
67749;SDS011;54550;48.838;8.828;2023-01-26T09:56:27;37.92;;;15.55;;
67749;SDS011;54550;48.838;8.828;2023-01-26T09:58:56;37.92;;;16.38;;
67749;SDS011;54550;48.838;8.828;2023-01-26T10:04:50;58.17;;;18.38;;
67749;SDS011;54550;48.838;8.828;2023-01-26T10:07:20;48.83;;;18.65;;
67749;SDS011;54550;48.838;8.828;2023-01-26T10:09:47;45.97;;;15.33;;
67749;SDS011;54550;48.838;8.828;2023-01-26T10:15:38;52.75;;;17.15;;
67749;SDS011;54550;48.838;8.828;2023-01-26T10:17:55;53.92;;;16.38;;
67749;SDS011;54550;48.838;8.828;2023-01-26T10:22:55;52.50;;;14.48;;
67749;SDS011;54550;48.838;8.828;2023-01-26T10:27:54;49.65;;;16.88;;
67749;SDS011;54550;48.838;8.828;2023-01-26T10:30:20;48.03;;;16.97;;
67749;SDS011;54550;48.838;8.828;2023-01-26T10:32:46;61.78;;;17.00;;
67749;SDS011;54550;48.838;8.828;2023-01-26T10:35:19;43.35;;;15.73;;
67749;SDS011;54550;48.838;8.828;2023-01-26T10:37:46;46.35;;;16.02;;
67749;SDS011;54550;48.838;8.828;2023-01-26T10:40:12;23.35;;;10.63;;
67749;SDS011;54550;48.838;8.828;2023-01-26T10:42:39;41.23;;;16.30;;
67749;SDS011;54550;48.838;8.828;2023-01-26T10:45:06;43.17;;;14.77;;
67749;SDS011;54550;48.838;8.828;2023-01-26T10:50:40;37.65;;;13.45;;
67749;SDS011;54550;48.838;8.828;2023-01-26T10:53:09;33.30;;;13.67;;
67749;SDS011;54550;48.838;8.828;2023-01-26T10:55:42;31.58;;;14.60;;
67749;SDS011;54550;48.838;8.828;2023-01-26T10:58:56;38.80;;;13.75;;
67749;SDS011;54550;48.838;8.828;2023-01-26T11:01:19;32.63;;;12.93;;
67749;SDS011;54550;48.838;8.828;2023-01-26T11:03:58;36.35;;;13.95;;
67749;SDS011;54550;48.838;8.828;2023-01-26T11:06:28;30.90;;;13.15;;
67749;SDS011;54550;48.838;8.828;2023-01-26T11:09:07;30.42;;;12.05;;
67749;SDS011;54550;48.838;8.828;2023-01-26T11:11:39;34.03;;;13.15;;
67749;SDS011;54550;48.838;8.828;2023-01-26T11:14:12;31.35;;;13.00;;
67749;SDS011;54550;48.838;8.828;2023-01-26T11:16:43;32.55;;;12.30;;
67749;SDS011;54550;48.838;8.828;2023-01-26T11:19:24;40.10;;;14.35;;
67749;SDS011;54550;48.838;8.828;2023-01-26T11:22:02;34.55;;;13.05;;
67749;SDS011;54550;48.838;8.828;2023-01-26T11:32:27;29.58;;;11.10;;
67749;SDS011;54550;48.838;8.828;2023-01-26T11:37:45;26.57;;;12.30;;
67749;SDS011;54550;48.838;8.828;2023-01-26T11:40:21;31.83;;;12.00;;
67749;SDS011;54550;48.838;8.828;2023-01-26T11:43:17;26.45;;;11.20;;
67749;SDS011;54550;48.838;8.828;2023-01-26T11:51:47;27.48;;;11.30;;
67749;SDS011;54550;48.838;8.828;2023-01-26T11:57:12;24.40;;;12.73;;
67749;SDS011;54550;48.838;8.828;2023-01-26T11:59:58;33.55;;;11.48;;
67749;SDS011;54550;48.838;8.828;2023-01-26T12:02:30;37.20;;;10.85;;
67749;SDS011;54550;48.838;8.828;2023-01-26T12:04:59;31.75;;;11.70;;
67749;SDS011;54550;48.838;8.828;2023-01-26T12:07:56;35.25;;;13.32;;
67749;SDS011;54550;48.838;8.828;2023-01-26T12:10:36;37.90;;;12.75;;
67749;SDS011;54550;48.838;8.828;2023-01-26T12:13:17;31.90;;;13.35;;
67749;SDS011;54550;48.838;8.828;2023-01-26T12:15:56;35.33;;;13.18;;
67749;SDS011;54550;48.838;8.828;2023-01-26T12:18:34;45.58;;;13.27;;
67749;SDS011;54550;48.838;8.828;2023-01-26T12:21:09;34.30;;;13.45;;
67749;SDS011;54550;48.838;8.828;2023-01-26T12:26:14;33.22;;;14.45;;
67749;SDS011;54550;48.838;8.828;2023-01-26T12:28:44;39.70;;;14.95;;
67749;SDS011;54550;48.838;8.828;2023-01-26T12:33:46;38.22;;;14.90;;
67749;SDS011;54550;48.838;8.828;2023-01-26T12:36:19;38.28;;;14.88;;
67749;SDS011;54550;48.838;8.828;2023-01-26T12:44:34;43.05;;;15.50;;
67749;SDS011;54550;48.838;8.828;2023-01-26T12:47:07;45.47;;;15.63;;
67749;SDS011;54550;48.838;8.828;2023-01-26T12:49:35;46.35;;;16.35;;
67749;SDS011;54550;48.838;8.828;2023-01-26T12:57:27;43.90;;;15.95;;
67749;SDS011;54550;48.838;8.828;2023-01-26T13:00:02;33.53;;;14.48;;
67749;SDS011;54550;48.838;8.828;2023-01-26T13:02:30;40.47;;;14.18;;
67749;SDS011;54550;48.838;8.828;2023-01-26T13:04:59;37.47;;;15.20;;
67749;SDS011;54550;48.838;8.828;2023-01-26T13:07:36;40.28;;;16.55;;
67749;SDS011;54550;48.838;8.828;2023-01-26T13:10:07;39.75;;;16.08;;
67749;SDS011;54550;48.838;8.828;2023-01-26T13:15:28;42.13;;;17.92;;
67749;SDS011;54550;48.838;8.828;2023-01-26T13:22:48;41.60;;;17.70;;
67749;SDS011;54550;48.838;8.828;2023-01-26T13:25:30;39.33;;;16.63;;
67749;SDS011;54550;48.838;8.828;2023-01-26T13:28:00;45.42;;;16.25;;
67749;SDS011;54550;48.838;8.828;2023-01-26T13:30:28;39.88;;;15.60;;
67749;SDS011;54550;48.838;8.828;2023-01-26T13:33:12;41.67;;;17.45;;
67749;SDS011;54550;48.838;8.828;2023-01-26T13:35:45;47.85;;;17.63;;
67749;SDS011;54550;48.838;8.828;2023-01-26T13:38:14;48.35;;;17.58;;
67749;SDS011;54550;48.838;8.828;2023-01-26T13:41:05;46.60;;;17.77;;
67749;SDS011;54550;48.838;8.828;2023-01-26T13:43:41;35.20;;;15.63;;
67749;SDS011;54550;48.838;8.828;2023-01-26T13:46:29;37.42;;;16.45;;
67749;SDS011;54550;48.838;8.828;2023-01-26T13:49:01;50.05;;;17.25;;
67749;SDS011;54550;48.838;8.828;2023-01-26T13:51:28;40.63;;;16.93;;
67749;SDS011;54550;48.838;8.828;2023-01-26T13:53:59;45.88;;;17.50;;
67749;SDS011;54550;48.838;8.828;2023-01-26T13:56:29;44.20;;;17.50;;
67749;SDS011;54550;48.838;8.828;2023-01-26T13:59:10;41.78;;;16.20;;
67749;SDS011;54550;48.838;8.828;2023-01-26T14:01:41;47.88;;;15.95;;
67749;SDS011;54550;48.838;8.828;2023-01-26T14:04:11;46.92;;;16.20;;
67749;SDS011;54550;48.838;8.828;2023-01-26T14:06:48;39.20;;;16.48;;
67749;SDS011;54550;48.838;8.828;2023-01-26T14:09:18;42.05;;;16.73;;
67749;SDS011;54550;48.838;8.828;2023-01-26T14:11:45;45.93;;;17.50;;
67749;SDS011;54550;48.838;8.828;2023-01-26T14:14:22;70.22;;;18.13;;
67749;SDS011;54550;48.838;8.828;2023-01-26T14:16:49;160.43;;;17.27;;
67749;SDS011;54550;48.838;8.828;2023-01-26T14:19:16;54.40;;;19.10;;
67749;SDS011;54550;48.838;8.828;2023-01-26T14:21:44;72.38;;;17.25;;
67749;SDS011;54550;48.838;8.828;2023-01-26T14:24:11;79.40;;;18.02;;
67749;SDS011;54550;48.838;8.828;2023-01-26T14:26:37;33.50;;;16.63;;
67749;SDS011;54550;48.838;8.828;2023-01-26T14:29:09;46.67;;;17.40;;
67749;SDS011;54550;48.838;8.828;2023-01-26T14:31:47;55.53;;;15.25;;
67749;SDS011;54550;48.838;8.828;2023-01-26T14:34:17;43.10;;;14.88;;
67749;SDS011;54550;48.838;8.828;2023-01-26T14:36:45;115.32;;;18.10;;
67749;SDS011;54550;48.838;8.828;2023-01-26T14:39:15;70.80;;;13.20;;
67749;SDS011;54550;48.838;8.828;2023-01-26T14:41:42;81.70;;;17.50;;
67749;SDS011;54550;48.838;8.828;2023-01-26T14:44:08;65.63;;;16.35;;
67749;SDS011;54550;48.838;8.828;2023-01-26T14:46:37;73.85;;;17.73;;
67749;SDS011;54550;48.838;8.828;2023-01-26T14:49:18;87.93;;;17.88;;
67749;SDS011;54550;48.838;8.828;2023-01-26T14:52:13;39.25;;;17.60;;
67749;SDS011;54550;48.838;8.828;2023-01-26T14:55:05;46.97;;;15.60;;
67749;SDS011;54550;48.838;8.828;2023-01-26T14:57:31;62.72;;;19.35;;
67749;SDS011;54550;48.838;8.828;2023-01-26T14:59:58;32.70;;;16.10;;
67749;SDS011;54550;48.838;8.828;2023-01-26T15:02:26;52.33;;;18.83;;
67749;SDS011;54550;48.838;8.828;2023-01-26T15:05:08;35.13;;;14.60;;
67749;SDS011;54550;48.838;8.828;2023-01-26T15:07:40;34.53;;;18.65;;
67749;SDS011;54550;48.838;8.828;2023-01-26T15:12:56;31.55;;;16.02;;
67749;SDS011;54550;48.838;8.828;2023-01-26T15:15:34;32.67;;;14.25;;
67749;SDS011;54550;48.838;8.828;2023-01-26T15:20:42;41.33;;;15.50;;
67749;SDS011;54550;48.838;8.828;2023-01-26T15:23:18;31.35;;;15.38;;
67749;SDS011;54550;48.838;8.828;2023-01-26T15:25:47;30.45;;;16.20;;
67749;SDS011;54550;48.838;8.828;2023-01-26T15:28:21;33.63;;;14.93;;
67749;SDS011;54550;48.838;8.828;2023-01-26T15:30:50;34.67;;;15.88;;
67749;SDS011;54550;48.838;8.828;2023-01-26T15:36:02;40.90;;;13.93;;
67749;SDS011;54550;48.838;8.828;2023-01-26T15:38:28;31.20;;;14.43;;
67749;SDS011;54550;48.838;8.828;2023-01-26T15:40:53;33.93;;;15.90;;
67749;SDS011;54550;48.838;8.828;2023-01-26T15:43:19;31.27;;;14.10;;
67749;SDS011;54550;48.838;8.828;2023-01-26T15:45:52;27.83;;;13.65;;
67749;SDS011;54550;48.838;8.828;2023-01-26T15:48:19;30.73;;;12.90;;
67749;SDS011;54550;48.838;8.828;2023-01-26T15:50:46;27.73;;;12.00;;
67749;SDS011;54550;48.838;8.828;2023-01-26T15:53:17;25.90;;;11.95;;
67749;SDS011;54550;48.838;8.828;2023-01-26T15:55:44;31.42;;;14.75;;
67749;SDS011;54550;48.838;8.828;2023-01-26T15:58:16;30.55;;;13.57;;